Time;durP1;ratioP1;P1;durP2;ratioP2;P2;SDS_P1;SDS_P2;PMS_P1;PMS_P2;Temp;Humidity;BMP_temperature;BMP_pressure;BME280_temperature;BME280_humidity;BME280_pressure;Samples;Min_cycle;Max_cycle;Signal;HPM_P1;HPM_P2
2021/03/11 00:00:08;;;;;;;11.93;10.27;;;9.30;72.40;;;;;;5111929;28;20407;-51
2021/03/11 00:02:36;;;;;;;12.23;9.75;;;9.60;72.40;;;;;;5111239;28;20214;-50
2021/03/11 00:05:05;;;;;;;10.73;8.90;;;9.70;72.80;;;;;;5111138;28;20175;-51
2021/03/11 00:07:31;;;;;;;12.30;9.32;;;9.60;72.50;;;;;;5110936;28;20203;-50
2021/03/11 00:09:57;;;;;;;10.50;9.00;;;9.80;72.60;;;;;;5111542;28;20236;-50
2021/03/11 00:12:22;;;;;;;10.50;9.10;;;9.70;72.70;;;;;;5111601;28;20179;-50
2021/03/11 00:14:48;;;;;;;12.63;9.13;;;9.50;72.80;;;;;;5110606;28;20691;-50
2021/03/11 00:17:13;;;;;;;11.63;9.77;;;9.60;72.70;;;;;;5110837;28;20207;-50
2021/03/11 00:19:39;;;;;;;11.23;9.57;;;9.50;72.30;;;;;;5111019;28;20183;-50
2021/03/11 00:22:06;;;;;;;12.60;9.40;;;9.70;72.40;;;;;;5116055;27;20214;-50
2021/03/11 00:24:32;;;;;;;12.90;10.30;;;10.00;71.20;;;;;;5114970;27;20207;-51
2021/03/11 00:26:57;;;;;;;10.90;8.63;;;9.90;72.70;;;;;;5131313;27;20230;-50
2021/03/11 00:29:24;;;;;;;11.37;9.53;;;9.80;72.30;;;;;;5115119;27;20223;-50
2021/03/11 00:31:50;;;;;;;12.05;8.60;;;9.90;72.60;;;;;;5114674;27;20183;-50
2021/03/11 00:34:15;;;;;;;11.53;9.23;;;10.00;71.70;;;;;;5114411;27;20248;-50
2021/03/11 00:36:41;;;;;;;10.97;9.80;;;9.90;73.00;;;;;;5114340;27;20207;-51
2021/03/11 00:39:07;;;;;;;10.10;8.17;;;9.90;73.20;;;;;;5115246;27;20232;-51
2021/03/11 00:41:34;;;;;;;11.05;8.98;;;9.70;73.20;;;;;;5114887;27;20198;-50
2021/03/11 00:44:00;;;;;;;10.93;9.02;;;9.80;72.90;;;;;;5114675;27;20178;-50
2021/03/11 00:46:26;;;;;;;10.67;8.33;;;9.80;73.00;;;;;;5115125;27;20179;-50
2021/03/11 00:48:51;;;;;;;10.53;8.70;;;10.00;71.80;;;;;;5114860;27;20624;-50
2021/03/11 00:51:17;;;;;;;12.97;9.67;;;9.80;73.00;;;;;;5133027;27;20443;-50
2021/03/11 00:53:43;;;;;;;11.03;9.40;;;9.80;73.00;;;;;;5114483;27;20196;-51
2021/03/11 00:56:08;;;;;;;11.50;8.53;;;9.90;73.10;;;;;;5116416;27;20194;-51
2021/03/11 00:58:34;;;;;;;12.73;9.17;;;9.90;73.10;;;;;;5114702;27;20249;-50
2021/03/11 01:01:00;;;;;;;10.67;9.30;;;10.00;72.10;;;;;;5096956;27;20198;-50
2021/03/11 01:03:25;;;;;;;10.77;8.90;;;9.80;73.00;;;;;;5114147;27;20186;-51
2021/03/11 01:05:52;;;;;;;11.23;9.40;;;9.90;73.50;;;;;;5114496;27;20407;-50
2021/03/11 01:08:17;;;;;;;11.52;9.48;;;10.00;72.30;;;;;;5114754;27;20188;-50
2021/03/11 01:10:43;;;;;;;11.73;9.03;;;9.90;73.50;;;;;;5114486;27;20228;-50
2021/03/11 01:13:09;;;;;;;10.20;8.45;;;10.00;72.50;;;;;;5116421;27;20176;-50
2021/03/11 01:15:40;;;;;;;11.77;9.67;;;10.10;72.90;;;;;;5132474;27;20183;-50
2021/03/11 01:18:11;;;;;;;11.77;9.40;;;9.90;74.60;;;;;;5113891;27;20191;-50
2021/03/11 01:20:37;;;;;;;11.73;9.38;;;9.80;73.60;;;;;;5113734;27;20688;-51
2021/03/11 01:23:03;;;;;;;12.63;8.98;;;9.80;73.60;;;;;;5114267;27;20178;-50
2021/03/11 01:25:29;;;;;;;11.02;8.77;;;10.20;73.00;;;;;;5132523;27;20270;-51
2021/03/11 01:27:55;;;;;;;14.80;9.40;;;10.00;73.10;;;;;;5113809;27;20624;-50
2021/03/11 01:30:21;;;;;;;9.77;8.10;;;10.10;74.30;;;;;;5114212;27;20171;-50
2021/03/11 01:32:47;;;;;;;12.10;9.00;;;9.80;74.10;;;;;;5113276;27;20881;-51
2021/03/11 01:35:12;;;;;;;8.50;7.50;;;10.10;73.10;;;;;;5132401;27;20183;-50
2021/03/11 01:37:38;;;;;;;10.50;8.10;;;10.10;73.40;;;;;;5113105;27;20208;-51
2021/03/11 01:40:05;;;;;;;9.47;7.37;;;9.90;74.60;;;;;;5132051;27;20420;-50
2021/03/11 01:42:31;;;;;;;10.45;7.18;;;10.00;74.00;;;;;;5113166;27;20922;-50
2021/03/11 01:44:56;;;;;;;7.83;7.03;;;9.80;75.30;;;;;;5113118;27;20184;-50
2021/03/11 01:47:22;;;;;;;6.57;5.90;;;10.10;74.50;;;;;;5114127;27;20548;-51
2021/03/11 01:49:48;;;;;;;7.43;6.43;;;10.00;74.50;;;;;;5132032;27;20187;-51
2021/03/11 01:52:14;;;;;;;8.23;6.23;;;10.20;75.00;;;;;;5131815;27;20574;-50
2021/03/11 01:54:39;;;;;;;9.47;6.27;;;10.20;74.90;;;;;;5113462;27;20200;-51
2021/03/11 01:57:05;;;;;;;8.47;5.57;;;9.90;76.10;;;;;;5112906;27;20211;-50
2021/03/11 01:59:31;;;;;;;5.95;4.60;;;9.90;77.20;;;;;;5112543;27;20179;-50
2021/03/11 02:01:58;;;;;;;7.30;5.03;;;9.90;77.80;;;;;;5113161;27;20195;-50
2021/03/11 02:04:24;;;;;;;5.78;4.53;;;10.10;77.20;;;;;;5113340;27;20209;-50
2021/03/11 02:06:51;;;;;;;5.00;4.50;;;9.80;78.80;;;;;;5113119;27;20233;-50
2021/03/11 02:09:16;;;;;;;4.90;4.22;;;10.10;78.70;;;;;;5113134;27;20554;-50
2021/03/11 02:11:54;;;;;;;5.00;4.37;;;10.20;79.20;;;;;;5112898;27;20291;-50
2021/03/11 02:14:40;;;;;;;6.35;4.45;;;9.90;80.00;;;;;;5123515;27;20455;-51
2021/03/11 02:17:07;;;;;;;5.85;4.50;;;10.00;78.90;;;;;;5108674;27;20619;-51
2021/03/11 02:19:53;;;;;;;4.45;3.80;;;10.10;79.00;;;;;;5112454;27;20561;-50
2021/03/11 02:23:01;;;;;;;4.65;3.88;;;10.10;78.80;;;;;;5128865;27;20203;-50
2021/03/11 02:25:44;;;;;;;4.45;3.92;;;10.20;79.20;;;;;;5075810;27;20183;-50
2021/03/11 02:28:35;;;;;;;9.27;5.18;;;10.40;79.30;;;;;;5125692;27;20196;-50
2021/03/11 02:31:01;;;;;;;5.00;4.50;;;10.30;79.30;;;;;;5112438;27;20640;-50
2021/03/11 02:33:30;;;;;;;4.75;4.25;;;10.20;79.30;;;;;;5112535;27;20207;-50
2021/03/11 02:35:58;;;;;;;5.22;4.40;;;10.20;79.10;;;;;;5112789;27;20185;-50
2021/03/11 02:38:26;;;;;;;4.28;3.70;;;10.30;78.90;;;;;;5112596;27;20297;-50
2021/03/11 02:40:58;;;;;;;4.95;3.78;;;10.20;78.80;;;;;;5112579;27;20211;-50
2021/03/11 02:43:24;;;;;;;8.20;5.10;;;10.30;78.80;;;;;;5111782;27;20305;-51
2021/03/11 02:45:50;;;;;;;5.30;4.68;;;10.30;78.60;;;;;;5130749;27;20191;-50
2021/03/11 02:48:17;;;;;;;6.32;4.80;;;10.30;78.20;;;;;;5111799;27;20207;-50
2021/03/11 02:50:43;;;;;;;5.57;4.97;;;10.30;78.10;;;;;;5112546;27;20270;-50
2021/03/11 02:53:11;;;;;;;5.47;4.38;;;10.30;78.10;;;;;;5112374;27;20175;-50
2021/03/11 02:55:41;;;;;;;5.95;5.20;;;10.30;78.20;;;;;;5112223;27;20188;-50
2021/03/11 02:58:13;;;;;;;6.85;4.95;;;10.40;77.20;;;;;;5112054;27;20203;-51
2021/03/11 03:00:40;;;;;;;7.60;6.30;;;10.20;76.50;;;;;;5111674;27;20198;-50
2021/03/11 03:03:09;;;;;;;5.93;5.15;;;10.30;76.70;;;;;;5111955;27;20179;-50
2021/03/11 03:05:35;;;;;;;7.20;5.20;;;10.20;76.60;;;;;;5111835;27;20640;-50
2021/03/11 03:08:03;;;;;;;7.38;5.60;;;10.50;76.80;;;;;;5111683;27;20207;-50
2021/03/11 03:10:31;;;;;;;7.07;6.38;;;10.40;76.10;;;;;;5112030;27;20591;-50
2021/03/11 03:13:01;;;;;;;8.27;5.80;;;10.30;75.70;;;;;;5130045;27;20171;-50
2021/03/11 03:15:27;;;;;;;7.95;5.55;;;10.20;76.40;;;;;;5111701;27;20607;-51
2021/03/11 03:17:54;;;;;;;6.13;5.10;;;10.30;76.70;;;;;;5110960;27;20198;-51
2021/03/11 03:20:22;;;;;;;6.13;5.47;;;10.30;76.20;;;;;;5111789;27;20262;-51
2021/03/11 03:22:49;;;;;;;6.05;5.45;;;10.40;76.20;;;;;;5111640;28;20203;-51
2021/03/11 03:25:15;;;;;;;8.15;5.30;;;10.30;75.80;;;;;;5111776;28;20651;-50
2021/03/11 03:27:42;;;;;;;7.55;6.22;;;10.50;75.50;;;;;;5111440;28;20954;-51
2021/03/11 03:30:16;;;;;;;6.70;5.60;;;10.50;75.50;;;;;;5115743;27;20673;-51
2021/03/11 03:32:43;;;;;;;6.65;5.75;;;10.50;77.50;;;;;;5125999;27;20182;-51
2021/03/11 03:35:10;;;;;;;6.45;5.85;;;10.50;79.60;;;;;;5130154;27;20226;-50
2021/03/11 03:37:36;;;;;;;7.57;6.00;;;10.10;80.20;;;;;;5130881;27;20204;-51
2021/03/11 03:40:05;;;;;;;6.78;5.10;;;10.40;80.60;;;;;;5112430;28;20183;-51
2021/03/11 03:42:35;;;;;;;6.15;5.15;;;10.60;78.40;;;;;;5112450;28;20572;-50
2021/03/11 03:45:03;;;;;;;5.55;4.95;;;10.40;78.00;;;;;;5111144;28;20208;-50
2021/03/11 03:47:29;;;;;;;6.50;4.95;;;10.40;79.10;;;;;;5122302;27;20201;-51
2021/03/11 03:49:57;;;;;;;5.60;4.80;;;10.30;79.80;;;;;;5111063;28;20191;-51
2021/03/11 03:52:25;;;;;;;6.60;4.50;;;10.30;78.90;;;;;;5111376;28;20192;-51
2021/03/11 03:54:51;;;;;;;6.22;4.63;;;10.20;77.80;;;;;;5111620;27;20187;-51
2021/03/11 03:57:21;;;;;;;6.40;4.28;;;10.40;77.70;;;;;;5115024;27;20207;-50
2021/03/11 03:59:50;;;;;;;5.10;4.60;;;10.70;78.30;;;;;;5115535;27;20206;-51
2021/03/11 04:02:17;;;;;;;5.72;4.47;;;10.20;77.90;;;;;;5114237;27;20241;-50
2021/03/11 04:04:47;;;;;;;5.57;4.35;;;10.30;78.60;;;;;;5118973;27;20625;-51
2021/03/11 04:07:15;;;;;;;4.50;4.07;;;10.30;78.90;;;;;;5115071;27;20198;-51
2021/03/11 04:09:42;;;;;;;6.22;3.53;;;10.40;79.40;;;;;;5115056;27;20187;-50
2021/03/11 04:12:09;;;;;;;4.53;3.40;;;10.40;79.90;;;;;;5115007;27;20849;-50
2021/03/11 04:14:37;;;;;;;5.15;3.92;;;10.50;81.30;;;;;;5114698;27;20203;-50
2021/03/11 04:17:04;;;;;;;5.38;4.10;;;10.20;82.10;;;;;;5115028;27;20684;-50
2021/03/11 04:19:30;;;;;;;5.20;3.75;;;10.40;82.90;;;;;;5113819;27;20270;-50
2021/03/11 04:21:56;;;;;;;9.02;3.00;;;10.70;83.90;;;;;;5142540;27;20323;-50
2021/03/11 04:24:22;;;;;;;3.87;3.10;;;10.50;84.20;;;;;;5114972;27;20284;-51
2021/03/11 04:26:48;;;;;;;5.30;3.05;;;10.70;84.80;;;;;;5111869;28;20477;-50
2021/03/11 04:29:14;;;;;;;6.57;2.90;;;10.70;85.40;;;;;;5115403;27;20214;-51
2021/03/11 04:31:40;;;;;;;4.10;3.20;;;10.60;85.30;;;;;;5115030;27;20216;-50
2021/03/11 04:34:07;;;;;;;3.22;2.80;;;11.10;86.00;;;;;;5114801;27;20595;-50
2021/03/11 04:36:33;;;;;;;4.35;3.00;;;10.90;85.80;;;;;;5114051;27;20593;-51
2021/03/11 04:39:00;;;;;;;3.47;2.80;;;10.70;85.90;;;;;;5115212;27;20199;-51
2021/03/11 04:41:26;;;;;;;3.00;2.70;;;10.70;86.00;;;;;;5115555;27;20200;-51
2021/03/11 04:43:53;;;;;;;4.65;3.03;;;10.90;86.10;;;;;;5114202;27;20207;-51
2021/03/11 04:46:21;;;;;;;4.32;3.58;;;10.90;86.20;;;;;;5133381;27;20192;-51
2021/03/11 04:48:47;;;;;;;6.72;3.35;;;11.30;86.80;;;;;;5114435;27;20194;-51
2021/03/11 04:51:13;;;;;;;2.72;2.47;;;11.20;86.70;;;;;;5114664;27;20189;-50
2021/03/11 04:53:39;;;;;;;2.90;2.60;;;11.20;86.90;;;;;;5114234;27;20236;-50
2021/03/11 04:56:09;;;;;;;3.08;2.60;;;11.10;86.60;;;;;;5112088;27;20412;-51
2021/03/11 04:58:39;;;;;;;4.00;2.95;;;11.20;87.00;;;;;;5117678;27;20227;-50
2021/03/11 05:01:15;;;;;;;3.22;2.92;;;11.10;87.40;;;;;;5113969;27;20204;-50
2021/03/11 05:03:45;;;;;;;4.03;3.17;;;11.40;87.80;;;;;;5114124;27;20187;-50
2021/03/11 05:06:12;;;;;;;4.80;3.28;;;11.20;87.70;;;;;;5101211;27;20216;-50
2021/03/11 05:08:37;;;;;;;5.10;3.28;;;11.30;88.00;;;;;;5111302;27;20204;-50
2021/03/11 05:11:03;;;;;;;4.63;3.13;;;11.20;88.10;;;;;;5115022;27;20191;-51
2021/03/11 05:13:30;;;;;;;3.00;2.70;;;11.10;88.10;;;;;;5114087;27;20200;-50
2021/03/11 05:15:59;;;;;;;6.07;3.10;;;11.30;88.50;;;;;;5109153;27;20236;-50
2021/03/11 05:18:26;;;;;;;5.15;2.83;;;11.30;88.50;;;;;;5107809;27;20226;-50
2021/03/11 05:20:52;;;;;;;3.15;2.80;;;11.10;88.50;;;;;;5110820;27;20266;-50
2021/03/11 05:23:19;;;;;;;2.80;2.40;;;11.30;88.60;;;;;;5109825;27;20185;-50
2021/03/11 05:25:45;;;;;;;3.35;2.75;;;11.10;88.80;;;;;;5106645;27;20649;-51
2021/03/11 05:28:13;;;;;;;3.10;2.80;;;11.30;89.00;;;;;;5124721;27;20255;-50
2021/03/11 05:30:39;;;;;;;3.15;2.90;;;11.30;89.20;;;;;;5112673;27;20178;-51
2021/03/11 05:33:05;;;;;;;3.85;2.90;;;11.00;89.00;;;;;;5112751;27;20181;-51
2021/03/11 05:35:30;;;;;;;5.28;3.20;;;11.30;89.40;;;;;;5110101;27;20184;-51
2021/03/11 05:37:56;;;;;;;4.67;3.47;;;11.30;89.70;;;;;;5112955;27;20213;-51
2021/03/11 05:40:24;;;;;;;4.00;3.03;;;11.10;89.80;;;;;;5125091;27;20186;-51
2021/03/11 05:42:51;;;;;;;4.88;3.40;;;11.20;90.00;;;;;;5110613;27;20829;-51
2021/03/11 05:45:19;;;;;;;7.40;3.08;;;10.80;90.00;;;;;;5108622;27;20184;-53
2021/03/11 05:47:46;;;;;;;3.55;3.22;;;11.10;90.30;;;;;;5103961;27;20279;-53
2021/03/11 05:50:13;;;;;;;4.10;3.40;;;11.20;90.40;;;;;;5123278;27;20271;-53
2021/03/11 05:52:39;;;;;;;3.13;2.78;;;11.00;90.50;;;;;;5109869;27;20196;-52
2021/03/11 05:55:06;;;;;;;4.13;2.95;;;11.00;90.70;;;;;;5106839;27;20179;-51
2021/03/11 05:57:32;;;;;;;3.13;2.92;;;10.90;90.80;;;;;;5120527;27;20247;-52
2021/03/11 05:59:59;;;;;;;5.90;3.97;;;10.80;90.80;;;;;;5108014;27;20232;-54
2021/03/11 06:02:26;;;;;;;4.20;3.13;;;11.20;91.20;;;;;;5108537;27;20571;-53
2021/03/11 06:04:53;;;;;;;2.80;2.60;;;11.10;91.00;;;;;;5105950;27;20196;-54
2021/03/11 06:07:21;;;;;;;4.65;2.97;;;11.00;90.90;;;;;;5106334;28;20322;-53
2021/03/11 06:09:48;;;;;;;2.92;2.63;;;11.30;91.00;;;;;;5111427;27;20283;-54
2021/03/11 06:12:15;;;;;;;2.88;2.60;;;11.40;91.00;;;;;;5107664;27;20193;-53
2021/03/11 06:14:46;;;;;;;3.25;2.40;;;11.20;90.90;;;;;;5104832;27;20250;-54
2021/03/11 06:17:13;;;;;;;2.72;2.53;;;11.10;90.90;;;;;;5121064;27;20266;-54
2021/03/11 06:19:39;;;;;;;4.38;3.40;;;11.10;91.10;;;;;;5107291;27;20184;-53
2021/03/11 06:22:05;;;;;;;5.83;2.60;;;11.30;91.40;;;;;;5124499;27;20219;-53
2021/03/11 06:24:31;;;;;;;3.40;2.90;;;11.00;91.30;;;;;;5103791;27;20506;-54
2021/03/11 06:26:56;;;;;;;5.20;2.60;;;11.00;91.30;;;;;;5106674;27;20332;-54
2021/03/11 06:29:41;;;;;;;4.40;2.63;;;11.40;91.40;;;;;;5108554;27;20573;-54
2021/03/11 06:32:11;;;;;;;5.15;3.00;;;11.30;91.20;;;;;;5107418;27;20785;-55
2021/03/11 06:34:44;;;;;;;3.15;2.25;;;11.00;91.10;;;;;;5108721;27;20193;-53
2021/03/11 06:37:11;;;;;;;3.55;2.53;;;11.10;91.00;;;;;;5109831;27;20228;-53
2021/03/11 06:39:38;;;;;;;3.28;2.65;;;11.40;91.10;;;;;;5130257;27;20183;-54
2021/03/11 06:42:05;;;;;;;3.63;2.33;;;11.20;91.00;;;;;;5108697;27;20213;-52
2021/03/11 06:44:44;;;;;;;4.38;2.60;;;11.50;91.00;;;;;;5110255;27;20177;-52
2021/03/11 06:47:15;;;;;;;2.90;2.60;;;11.30;90.80;;;;;;5108789;27;20304;-52
2021/03/11 06:49:56;;;;;;;2.83;2.38;;;11.30;90.70;;;;;;5107942;27;20614;-52
2021/03/11 06:52:22;;;;;;;2.80;2.60;;;11.20;90.30;;;;;;5109017;27;20202;-52
2021/03/11 06:54:51;;;;;;;4.97;2.70;;;11.40;90.40;;;;;;5122378;27;20193;-53
2021/03/11 06:57:29;;;;;;;2.50;2.30;;;11.60;90.20;;;;;;5106050;27;20230;-51
2021/03/11 06:59:56;;;;;;;3.10;2.17;;;11.60;90.00;;;;;;5121404;27;20626;-53
2021/03/11 07:02:23;;;;;;;2.40;1.83;;;11.50;90.00;;;;;;5102842;27;20216;-52
2021/03/11 07:04:49;;;;;;;2.78;2.30;;;11.40;90.00;;;;;;5101769;27;20586;-53
2021/03/11 07:07:19;;;;;;;3.80;2.53;;;11.40;89.90;;;;;;5104594;27;20223;-53
2021/03/11 07:09:46;;;;;;;2.97;2.20;;;11.50;89.70;;;;;;5104800;27;20291;-53
2021/03/11 07:12:12;;;;;;;5.28;2.50;;;11.50;89.60;;;;;;5103391;27;20227;-52
2021/03/11 07:14:37;;;;;;;3.72;2.45;;;11.50;89.50;;;;;;5100768;27;20509;-53
2021/03/11 07:17:22;;;;;;;3.90;2.20;;;11.40;89.50;;;;;;5115160;27;20200;-50
2021/03/11 07:20:11;;;;;;;6.20;2.38;;;11.90;90.20;;;;;;5119411;27;20195;-55
2021/03/11 07:22:38;;;;;;;2.30;2.10;;;12.00;89.40;;;;;;5108742;27;20265;-52
2021/03/11 07:25:25;;;;;;;2.47;2.00;;;12.10;89.50;;;;;;5108027;27;20177;-54
2021/03/11 07:27:50;;;;;;;3.20;2.15;;;11.90;89.70;;;;;;5107629;27;20209;-52
2021/03/11 07:30:17;;;;;;;2.30;2.10;;;12.10;90.00;;;;;;5110306;28;20177;-53
2021/03/11 07:32:42;;;;;;;4.60;2.17;;;12.00;89.70;;;;;;5108943;27;20202;-54
2021/03/11 07:35:09;;;;;;;3.77;1.77;;;12.00;89.60;;;;;;5127387;27;20598;-54
2021/03/11 07:37:39;;;;;;;2.00;1.80;;;12.00;90.00;;;;;;5110655;28;20769;-52
2021/03/11 07:40:06;;;;;;;2.50;2.00;;;12.10;90.00;;;;;;5109555;28;20208;-52
2021/03/11 07:42:32;;;;;;;3.35;1.80;;;12.00;89.80;;;;;;5110862;28;20217;-52
2021/03/11 07:44:58;;;;;;;2.40;1.73;;;12.20;90.00;;;;;;5119816;28;20189;-52
2021/03/11 07:47:27;;;;;;;4.13;2.00;;;12.10;90.00;;;;;;5110178;28;20251;-52
2021/03/11 07:49:54;;;;;;;2.40;1.67;;;12.20;90.00;;;;;;5109617;28;20417;-58
2021/03/11 07:52:20;;;;;;;1.92;1.60;;;12.30;89.70;;;;;;5110518;28;20216;-53
2021/03/11 07:54:46;;;;;;;2.67;1.90;;;12.40;89.90;;;;;;5099634;28;20621;-53
2021/03/11 07:57:12;;;;;;;1.90;1.80;;;12.60;90.00;;;;;;5110968;28;20297;-53
2021/03/11 07:59:44;;;;;;;2.17;1.90;;;12.60;89.60;;;;;;5107481;28;20281;-53
2021/03/11 08:02:12;;;;;;;2.85;2.00;;;12.50;89.20;;;;;;5106837;28;20202;-53
2021/03/11 08:04:43;;;;;;;2.40;1.80;;;12.60;89.60;;;;;;5101803;28;20429;-54
2021/03/11 08:07:16;;;;;;;3.38;1.70;;;12.70;89.20;;;;;;5107775;28;20207;-57
2021/03/11 08:09:42;;;;;;;2.33;1.75;;;12.80;88.50;;;;;;5109874;28;20600;-57
2021/03/11 08:12:33;;;;;;;2.17;1.80;;;12.90;88.20;;;;;;5109902;28;20281;-57
2021/03/11 08:15:01;;;;;;;2.55;1.80;;;13.20;88.00;;;;;;5109712;28;20194;-58
2021/03/11 08:17:33;;;;;;;2.50;1.90;;;13.30;87.80;;;;;;5110299;28;20210;-57
2021/03/11 08:20:00;;;;;;;1.70;1.60;;;13.10;87.30;;;;;;5126748;28;20190;-57
2021/03/11 08:23:00;;;;;;;3.00;1.98;;;13.10;87.10;;;;;;5110901;28;20207;-58
2021/03/11 08:25:32;;;;;;;2.38;1.85;;;13.20;86.50;;;;;;5086862;28;20690;-58
2021/03/11 08:27:58;;;;;;;2.03;1.80;;;13.60;86.30;;;;;;5097590;28;20213;-57
2021/03/11 08:30:39;;;;;;;2.60;1.80;;;13.50;86.10;;;;;;5121654;28;20320;-58
2021/03/11 08:33:12;;;;;;;2.30;1.60;;;13.40;85.80;;;;;;5109622;28;20197;-53
2021/03/11 08:35:38;;;;;;;2.33;1.60;;;13.50;85.50;;;;;;5107054;28;20229;-55
2021/03/11 08:38:19;;;;;;;1.73;1.55;;;13.60;85.40;;;;;;5107113;28;20211;-56
2021/03/11 08:40:52;;;;;;;1.88;1.77;;;13.60;85.10;;;;;;5129472;27;20182;-54
2021/03/11 08:43:41;;;;;;;2.00;1.85;;;13.60;84.70;;;;;;5128892;27;20199;-54
2021/03/11 08:46:13;;;;;;;2.70;1.77;;;13.70;85.10;;;;;;5097106;27;20283;-55
2021/03/11 08:48:57;;;;;;;3.50;1.58;;;14.00;85.00;;;;;;5134291;27;20687;-53
2021/03/11 08:51:23;;;;;;;3.30;2.38;;;13.80;84.30;;;;;;5113682;27;20185;-51
2021/03/11 08:54:01;;;;;;;2.70;1.30;;;14.00;84.60;;;;;;5114123;27;20269;-52
2021/03/11 08:56:27;;;;;;;4.00;1.70;;;14.30;85.10;;;;;;5114293;27;20205;-53
2021/03/11 08:59:12;;;;;;;2.70;1.80;;;14.20;85.20;;;;;;5130454;27;20676;-53
2021/03/11 09:01:45;;;;;;;1.20;1.10;;;14.20;85.40;;;;;;5114410;27;20214;-54
2021/03/11 09:04:20;;;;;;;4.03;1.27;;;14.50;85.80;;;;;;5114131;27;20171;-54
2021/03/11 09:07:11;;;;;;;2.70;1.60;;;14.70;85.20;;;;;;5100677;27;20194;-55
2021/03/11 09:09:48;;;;;;;1.80;1.55;;;15.00;84.90;;;;;;5109356;27;20574;-53
2021/03/11 09:12:14;;;;;;;2.30;1.48;;;15.00;84.60;;;;;;5108153;28;20194;-52
2021/03/11 09:14:51;;;;;;;1.50;1.27;;;15.10;84.50;;;;;;5127866;27;20194;-56
2021/03/11 09:17:21;;;;;;;1.55;1.20;;;14.70;84.10;;;;;;5108954;27;20746;-54
2021/03/11 09:19:47;;;;;;;1.50;1.40;;;15.30;84.30;;;;;;5130307;27;20197;-58
2021/03/11 09:22:28;;;;;;;1.60;1.50;;;15.10;83.20;;;;;;5112520;27;20206;-55
2021/03/11 09:24:57;;;;;;;1.50;1.25;;;15.30;82.70;;;;;;5103413;27;20209;-55
2021/03/11 09:27:24;;;;;;;3.40;1.83;;;15.20;82.40;;;;;;5112844;27;20231;-55
2021/03/11 09:29:50;;;;;;;1.50;1.38;;;15.30;82.70;;;;;;5111545;27;20183;-56
2021/03/11 09:32:16;;;;;;;2.00;1.20;;;15.30;82.80;;;;;;5109620;27;20692;-55
2021/03/11 09:34:58;;;;;;;1.50;1.33;;;15.20;82.20;;;;;;5110618;27;20517;-53
2021/03/11 09:37:57;;;;;;;1.60;1.25;;;15.30;81.90;;;;;;5108479;27;20291;-55
2021/03/11 09:40:44;;;;;;;3.38;1.40;;;15.20;82.10;;;;;;5108463;27;20471;-56
2021/03/11 09:43:29;;;;;;;1.40;1.30;;;15.30;82.60;;;;;;5129101;27;20289;-57
2021/03/11 09:45:59;;;;;;;2.35;1.20;;;15.30;82.80;;;;;;5104337;27;20183;-56
2021/03/11 09:48:28;;;;;;;5.25;1.65;;;15.20;82.50;;;;;;5107037;27;20247;-55
2021/03/11 09:50:57;;;;;;;4.53;1.75;;;15.40;83.00;;;;;;5100145;27;20612;-55
2021/03/11 09:53:24;;;;;;;1.38;1.10;;;15.50;82.60;;;;;;5107186;27;20403;-52
2021/03/11 09:55:55;;;;;;;2.95;1.50;;;15.50;82.30;;;;;;5108326;27;20773;-53
2021/03/11 09:58:21;;;;;;;3.75;1.33;;;15.50;82.00;;;;;;5105079;27;20687;-57
2021/03/11 10:00:48;;;;;;;3.80;1.27;;;15.60;81.90;;;;;;5104063;27;20202;-56
2021/03/11 10:03:26;;;;;;;4.68;1.17;;;15.60;82.00;;;;;;5108928;27;20556;-56
2021/03/11 10:06:04;;;;;;;1.90;1.30;;;15.80;82.30;;;;;;5106937;27;20182;-54
2021/03/11 10:08:39;;;;;;;1.90;1.70;;;15.40;82.40;;;;;;5112467;27;20202;-54
2021/03/11 10:11:12;;;;;;;5.05;1.42;;;15.50;83.10;;;;;;5108854;27;20179;-54
2021/03/11 10:13:46;;;;;;;4.25;1.75;;;15.30;83.70;;;;;;5109009;27;20187;-53
2021/03/11 10:16:13;;;;;;;1.45;1.35;;;15.20;83.70;;;;;;5098882;27;20235;-54
2021/03/11 10:19:01;;;;;;;3.35;1.27;;;15.20;84.20;;;;;;5109089;27;20279;-52
2021/03/11 10:21:27;;;;;;;1.35;1.25;;;15.40;84.50;;;;;;5120270;27;20346;-53
2021/03/11 10:23:53;;;;;;;1.95;1.30;;;16.00;83.90;;;;;;5106561;27;20707;-54
2021/03/11 10:26:23;;;;;;;2.27;1.07;;;16.40;82.40;;;;;;5110886;27;20281;-53
2021/03/11 10:28:52;;;;;;;1.88;1.45;;;16.10;81.60;;;;;;5111353;27;20468;-53
2021/03/11 10:31:22;;;;;;;2.78;1.58;;;16.30;81.80;;;;;;5111119;27;20190;-51
2021/03/11 10:34:01;;;;;;;2.38;1.27;;;16.30;82.00;;;;;;5110774;27;20315;-54
2021/03/11 10:36:27;;;;;;;5.95;1.92;;;16.60;82.70;;;;;;5112169;27;20281;-55
2021/03/11 10:39:19;;;;;;;1.60;1.05;;;16.20;82.50;;;;;;5109112;27;20587;-54
2021/03/11 10:42:05;;;;;;;2.75;1.20;;;16.50;83.10;;;;;;5119991;27;20238;-55
2021/03/11 10:44:35;;;;;;;1.88;0.90;;;16.50;83.90;;;;;;5109937;27;20186;-55
2021/03/11 10:47:18;;;;;;;1.45;0.82;;;16.60;83.80;;;;;;5128308;27;20205;-50
2021/03/11 10:49:45;;;;;;;1.98;1.17;;;16.60;83.70;;;;;;5101078;27;20197;-53
2021/03/11 10:52:11;;;;;;;2.35;1.10;;;16.20;84.20;;;;;;5111432;27;20589;-53
2021/03/11 10:54:39;;;;;;;1.42;0.90;;;16.30;84.40;;;;;;5101973;27;20186;-53
2021/03/11 10:57:11;;;;;;;4.57;0.82;;;16.30;85.20;;;;;;5109243;27;20198;-54
2021/03/11 10:59:49;;;;;;;3.20;0.90;;;16.20;86.00;;;;;;5104725;27;20655;-53
2021/03/11 11:02:15;;;;;;;0.90;0.80;;;15.90;87.50;;;;;;5110129;27;20226;-56
2021/03/11 11:04:41;;;;;;;1.20;0.90;;;15.90;88.50;;;;;;5112179;28;20179;-55
2021/03/11 11:07:08;;;;;;;0.80;0.80;;;15.50;89.00;;;;;;5110355;27;20198;-52
2021/03/11 11:09:34;;;;;;;1.40;1.13;;;15.70;90.00;;;;;;5123048;27;20187;-53
2021/03/11 11:12:00;;;;;;;1.25;1.00;;;15.40;90.40;;;;;;5110087;27;20671;-53
2021/03/11 11:14:25;;;;;;;1.13;0.87;;;15.40;91.40;;;;;;5105979;28;20195;-53
2021/03/11 11:16:51;;;;;;;1.20;1.00;;;15.10;92.70;;;;;;5111417;27;20203;-52
2021/03/11 11:19:17;;;;;;;1.30;0.87;;;14.80;93.30;;;;;;5110916;27;20202;-53
2021/03/11 11:21:42;;;;;;;1.40;1.00;;;14.80;94.50;;;;;;5111343;27;20214;-52
2021/03/11 11:24:08;;;;;;;7.30;1.40;;;14.60;95.70;;;;;;5109250;27;20967;-52
2021/03/11 11:26:34;;;;;;;1.65;1.20;;;14.50;96.20;;;;;;5109639;27;20545;-51
2021/03/11 11:28:59;;;;;;;2.90;1.17;;;14.50;97.30;;;;;;5111024;28;20879;-51
2021/03/11 11:31:25;;;;;;;1.27;1.17;;;14.40;97.30;;;;;;5107725;27;22381;-52
2021/03/11 11:33:51;;;;;;;5.43;2.10;;;14.00;97.50;;;;;;5106861;28;20565;-51
2021/03/11 11:36:16;;;;;;;1.53;1.10;;;14.40;98.60;;;;;;5103215;28;20696;-51
2021/03/11 11:38:42;;;;;;;2.93;1.70;;;14.30;98.40;;;;;;5105335;28;20226;-52
2021/03/11 11:41:08;;;;;;;23.47;4.33;;;14.30;98.60;;;;;;5106622;28;20732;-52
2021/03/11 11:43:33;;;;;;;4.90;1.60;;;14.20;98.50;;;;;;5106949;28;20208;-54
2021/03/11 11:45:59;;;;;;;9.83;3.03;;;14.40;99.00;;;;;;5108176;28;21025;-53
2021/03/11 11:48:25;;;;;;;1.70;1.00;;;14.20;99.40;;;;;;5110152;28;20759;-55
2021/03/11 11:50:53;;;;;;;10.77;1.87;;;14.10;99.50;;;;;;5109494;28;20183;-54
2021/03/11 11:53:20;;;;;;;16.52;3.13;;;14.20;99.40;;;;;;5105942;28;20230;-53
2021/03/11 11:55:46;;;;;;;2.55;1.88;;;14.50;99.90;;;;;;5110794;28;20195;-57
2021/03/11 11:58:12;;;;;;;3.50;2.50;;;14.30;99.90;;;;;;5126678;28;20221;-54
2021/03/11 12:00:37;;;;;;;1.70;0.90;;;14.20;99.90;;;;;;5111900;28;20187;-53
2021/03/11 12:03:03;;;;;;;2.70;1.47;;;14.00;99.90;;;;;;5123987;28;20211;-52
2021/03/11 12:05:29;;;;;;;8.10;2.00;;;13.60;99.90;;;;;;5107426;28;20179;-53
2021/03/11 12:07:54;;;;;;;1.83;1.00;;;14.00;99.90;;;;;;5108906;28;20547;-52
2021/03/11 12:10:20;;;;;;;2.00;1.10;;;14.30;99.90;;;;;;5109853;28;20183;-52
2021/03/11 12:12:49;;;;;;;3.10;1.80;;;14.50;99.90;;;;;;5108441;28;20182;-51
2021/03/11 12:15:14;;;;;;;9.85;2.15;;;14.50;99.90;;;;;;5124151;28;20188;-55
2021/03/11 12:17:40;;;;;;;1.23;1.10;;;14.80;99.90;;;;;;5099256;28;20202;-55
2021/03/11 12:20:06;;;;;;;1.10;1.00;;;14.30;99.90;;;;;;5110522;27;20284;-52
2021/03/11 12:22:32;;;;;;;1.50;0.95;;;14.40;99.90;;;;;;5110146;27;20209;-54
2021/03/11 12:24:58;;;;;;;1.20;0.97;;;14.50;99.90;;;;;;5111891;27;20629;-52
2021/03/11 12:27:24;;;;;;;5.60;2.43;;;14.50;99.90;;;;;;5110166;27;20207;-51
2021/03/11 12:29:52;;;;;;;1.10;0.90;;;14.50;99.90;;;;;;5111985;27;20224;-53
2021/03/11 12:32:18;;;;;;;1.25;0.80;;;14.60;99.90;;;;;;5107006;27;20922;-52
2021/03/11 12:34:44;;;;;;;1.75;1.25;;;14.70;99.90;;;;;;5115423;27;20175;-54
2021/03/11 12:37:10;;;;;;;1.63;1.27;;;14.50;99.90;;;;;;5128364;27;20210;-52
2021/03/11 12:39:35;;;;;;;1.33;0.90;;;14.50;99.90;;;;;;5109750;27;20865;-52
2021/03/11 12:42:01;;;;;;;1.20;1.10;;;14.60;99.90;;;;;;5106976;27;20471;-51
2021/03/11 12:44:27;;;;;;;2.70;1.10;;;14.80;99.90;;;;;;5113824;27;20186;-51
2021/03/11 12:46:54;;;;;;;0.90;0.70;;;14.90;99.90;;;;;;5111016;27;20206;-51
2021/03/11 12:49:20;;;;;;;1.08;0.98;;;14.90;99.60;;;;;;5131247;27;20185;-53
2021/03/11 12:51:45;;;;;;;1.03;0.80;;;15.00;99.50;;;;;;5110815;27;20214;-53
2021/03/11 12:54:11;;;;;;;1.00;0.90;;;14.90;99.10;;;;;;5109938;27;20190;-53